Flourtown, Pennsylvania
Current Conditions -  °F | °C
As of 2:35 PM on Wednesday 17 Dec 2014 (Local Time) from KLOM Reporting Station
Overcast Overcast  
Wind Chill: 50°   Ceiling: 4200
Heat Index: 50°   Visibility: 10mi
Dew Point: 36°   Wind: 14mph
Humidity: 58%   Direction: 280°W
Pressure: 29.88"   Gusts: 22mph
Location:  40.1°N, 75.21°W
Report Text: KLOM 171935Z AUTO 28012G19KT 10SM OVC042 10/02 A2988 RMK AO1
Loading
Personal Weather Stations






























Interactive Weather Map New forecast layout! Learn more

10-Day Weather Forecast

Advertisements
Track Severe Weather on mobile